
<gpx xmlns="http://www.topografix.com/GPX/1/1" xmlns:gpxx="http://www.garmin.com/xmlschemas/GpxExtensions/v3" xmlns:xsi="http://www.w3.org/2001/XMLSchema-instance" version="1.1" creator="Adze - https://getadze.com/" xsi:schemaLocation="http://www.topografix.com/GPX/1/1 http://www.topografix.com/GPX/1/1/gpx.xsd http://www.garmin.com/xmlschemas/GpxExtensions/v3 http://www.garmin.com/xmlschemas/GpxExtensionsv3.xsd">
    <metadata>
        <name>Untitled Document</name>
        <link href="http://www.garmin.com"></link>
        <time>2018-03-08T04:37:54.509Z</time>
    </metadata>
    <wpt lon="101.406443" lat="14.216751">
        <ele>21.000000</ele>
        <name>KhaoYaiGrandView</name>
        <cmt>27-NOV-09 13:47:56</cmt>
        <desc>27-NOV-09 13:47:56</desc>
        <sym>Lodging</sym>
        <extensions>
            <gpxx:WaypointExtension xmlns:gpxx="http://www.garmin.com/xmlschemas/GpxExtensions/v3">
                <gpxx:DisplayMode>SymbolOnly</gpxx:DisplayMode>
            </gpxx:WaypointExtension>
        </extensions>
    </wpt>
    <wpt lon="101.342944" lat="14.204547">
        <ele>15.000000</ele>
        <name>November 2009 - Sunday water</name>
        <cmt>29-NOV-09 11:18:02</cmt>
        <desc>29-NOV-09 11:18:02</desc>
        <sym>Drinking Water</sym>
        <extensions>
            <gpxx:WaypointExtension xmlns:gpxx="http://www.garmin.com/xmlschemas/GpxExtensions/v3">
                <gpxx:DisplayMode>SymbolOnly</gpxx:DisplayMode>
            </gpxx:WaypointExtension>
        </extensions>
    </wpt>
    <trk>
        <name>November 2009 - Sunday</name>
        <extensions>
            <gpxx:TrackExtension xmlns:gpxx="http://www.garmin.com/xmlschemas/GpxExtensions/v3">
                <gpxx:DisplayColor>Green</gpxx:DisplayColor>
            </gpxx:TrackExtension>
        </extensions>
        <trkseg>
            <trkpt lon="101.406484" lat="14.216908">
                <ele>33.783447</ele>
                <time>2009-11-29T02:58:30Z</time>
            </trkpt>
            <trkpt lon="101.406703" lat="14.216826">
                <ele>31.860718</ele>
                <time>2009-11-29T02:58:42Z</time>
            </trkpt>
            <trkpt lon="101.407348" lat="14.217008">
                <ele>34.744873</ele>
                <time>2009-11-29T02:59:07Z</time>
            </trkpt>
            <trkpt lon="101.407179" lat="14.217201">
                <ele>33.783447</ele>
                <time>2009-11-29T02:59:15Z</time>
            </trkpt>
            <trkpt lon="101.406811" lat="14.217310">
                <ele>34.744873</ele>
                <time>2009-11-29T02:59:25Z</time>
            </trkpt>
            <trkpt lon="101.406178" lat="14.217524">
                <ele>33.783447</ele>
                <time>2009-11-29T02:59:41Z</time>
            </trkpt>
            <trkpt lon="101.406003" lat="14.217715">
                <ele>34.264160</ele>
                <time>2009-11-29T02:59:47Z</time>
            </trkpt>
            <trkpt lon="101.405887" lat="14.218282">
                <ele>33.302856</ele>
                <time>2009-11-29T03:00:02Z</time>
            </trkpt>
            <trkpt lon="101.405761" lat="14.218314">
                <ele>32.341553</ele>
                <time>2009-11-29T03:00:05Z</time>
            </trkpt>
            <trkpt lon="101.405661" lat="14.218568">
                <ele>30.899536</ele>
                <time>2009-11-29T03:00:11Z</time>
            </trkpt>
            <trkpt lon="101.405788" lat="14.219346">
                <ele>34.744873</ele>
                <time>2009-11-29T03:00:26Z</time>
            </trkpt>
            <trkpt lon="101.405631" lat="14.222022">
                <ele>40.993408</ele>
                <time>2009-11-29T03:01:27Z</time>
            </trkpt>
            <trkpt lon="101.404521" lat="14.222152">
                <ele>36.667481</ele>
                <time>2009-11-29T03:01:51Z</time>
            </trkpt>
            <trkpt lon="101.404106" lat="14.222666">
                <ele>34.264160</ele>
                <time>2009-11-29T03:02:11Z</time>
            </trkpt>
            <trkpt lon="101.403791" lat="14.222839">
                <ele>33.302856</ele>
                <time>2009-11-29T03:02:19Z</time>
            </trkpt>
            <trkpt lon="101.403431" lat="14.223139">
                <ele>30.899536</ele>
                <time>2009-11-29T03:02:32Z</time>
            </trkpt>
            <trkpt lon="101.402541" lat="14.224217">
                <ele>30.418823</ele>
                <time>2009-11-29T03:03:26Z</time>
            </trkpt>
            <trkpt lon="101.402257" lat="14.224536">
                <ele>28.496216</ele>
                <time>2009-11-29T03:03:39Z</time>
            </trkpt>
            <trkpt lon="101.401111" lat="14.225058">
                <ele>27.054321</ele>
                <time>2009-11-29T03:04:09Z</time>
            </trkpt>
            <trkpt lon="101.400318" lat="14.225255">
                <ele>25.612305</ele>
                <time>2009-11-29T03:04:30Z</time>
            </trkpt>
            <trkpt lon="101.399074" lat="14.225300">
                <ele>25.612305</ele>
                <time>2009-11-29T03:05:12Z</time>
            </trkpt>
            <trkpt lon="101.398708" lat="14.225419">
                <ele>25.131714</ele>
                <time>2009-11-29T03:05:26Z</time>
            </trkpt>
            <trkpt lon="101.397380" lat="14.226193">
                <ele>22.728272</ele>
                <time>2009-11-29T03:06:46Z</time>
            </trkpt>
            <trkpt lon="101.396421" lat="14.224659">
                <ele>21.766968</ele>
                <time>2009-11-29T03:07:34Z</time>
            </trkpt>
            <trkpt lon="101.396256" lat="14.224664">
                <ele>21.286377</ele>
                <time>2009-11-29T03:07:40Z</time>
            </trkpt>
            <trkpt lon="101.395531" lat="14.225104">
                <ele>20.805664</ele>
                <time>2009-11-29T03:07:57Z</time>
            </trkpt>
            <trkpt lon="101.393996" lat="14.225066">
                <ele>19.363770</ele>
                <time>2009-11-29T03:08:22Z</time>
            </trkpt>
            <trkpt lon="101.392700" lat="14.225206">
                <ele>18.883057</ele>
                <time>2009-11-29T03:08:42Z</time>
            </trkpt>
            <trkpt lon="101.391214" lat="14.225445">
                <ele>18.402344</ele>
                <time>2009-11-29T03:09:05Z</time>
            </trkpt>
            <trkpt lon="101.389167" lat="14.226079">
                <ele>19.844360</ele>
                <time>2009-11-29T03:09:41Z</time>
            </trkpt>
            <trkpt lon="101.387995" lat="14.226471">
                <ele>19.363770</ele>
                <time>2009-11-29T03:10:02Z</time>
            </trkpt>
            <trkpt lon="101.386045" lat="14.226681">
                <ele>20.805664</ele>
                <time>2009-11-29T03:10:36Z</time>
            </trkpt>
            <trkpt lon="101.385909" lat="14.226638">
                <ele>20.805664</ele>
                <time>2009-11-29T03:10:40Z</time>
            </trkpt>
            <trkpt lon="101.383679" lat="14.226069">
                <ele>18.883057</ele>
                <time>2009-11-29T03:11:23Z</time>
            </trkpt>
            <trkpt lon="101.383450" lat="14.226229">
                <ele>18.883057</ele>
                <time>2009-11-29T03:11:30Z</time>
            </trkpt>
            <trkpt lon="101.382408" lat="14.228285">
                <ele>21.766968</ele>
                <time>2009-11-29T03:12:15Z</time>
            </trkpt>
            <trkpt lon="101.381665" lat="14.230735">
                <ele>22.728272</ele>
                <time>2009-11-29T03:13:06Z</time>
            </trkpt>
            <trkpt lon="101.381510" lat="14.230754">
                <ele>23.689575</ele>
                <time>2009-11-29T03:13:13Z</time>
            </trkpt>
            <trkpt lon="101.381076" lat="14.230177">
                <ele>26.573608</ele>
                <time>2009-11-29T03:13:29Z</time>
            </trkpt>
            <trkpt lon="101.380221" lat="14.229451">
                <ele>27.054321</ele>
                <time>2009-11-29T03:13:49Z</time>
            </trkpt>
            <trkpt lon="101.379292" lat="14.229008">
                <ele>26.092896</ele>
                <time>2009-11-29T03:14:05Z</time>
            </trkpt>
            <trkpt lon="101.377893" lat="14.229579">
                <ele>23.689575</ele>
                <time>2009-11-29T03:14:33Z</time>
            </trkpt>
            <trkpt lon="101.377093" lat="14.229315">
                <ele>22.728272</ele>
                <time>2009-11-29T03:14:49Z</time>
            </trkpt>
            <trkpt lon="101.376735" lat="14.229040">
                <ele>25.131714</ele>
                <time>2009-11-29T03:15:00Z</time>
            </trkpt>
            <trkpt lon="101.376504" lat="14.228916">
                <ele>23.208984</ele>
                <time>2009-11-29T03:15:06Z</time>
            </trkpt>
            <trkpt lon="101.375909" lat="14.228509">
                <ele>4.943848</ele>
                <time>2009-11-29T03:15:12Z</time>
            </trkpt>
            <trkpt lon="101.374992" lat="14.228231">
                <ele>21.766968</ele>
                <time>2009-11-29T03:15:48Z</time>
            </trkpt>
            <trkpt lon="101.374486" lat="14.228134">
                <ele>27.534912</ele>
                <time>2009-11-29T03:16:07Z</time>
            </trkpt>
            <trkpt lon="101.373357" lat="14.228423">
                <ele>32.822266</ele>
                <time>2009-11-29T03:16:39Z</time>
            </trkpt>
            <trkpt lon="101.372825" lat="14.228568">
                <ele>31.860718</ele>
                <time>2009-11-29T03:16:54Z</time>
            </trkpt>
            <trkpt lon="101.371724" lat="14.228594">
                <ele>30.899536</ele>
                <time>2009-11-29T03:19:25Z</time>
            </trkpt>
            <trkpt lon="101.370409" lat="14.228396">
                <ele>28.496216</ele>
                <time>2009-11-29T03:37:28Z</time>
            </trkpt>
            <trkpt lon="101.370211" lat="14.227841">
                <ele>29.457520</ele>
                <time>2009-11-29T03:39:01Z</time>
            </trkpt>
            <trkpt lon="101.369781" lat="14.226653">
                <ele>24.651001</ele>
                <time>2009-11-29T03:39:43Z</time>
            </trkpt>
            <trkpt lon="101.369911" lat="14.225431">
                <ele>16.479736</ele>
                <time>2009-11-29T03:40:54Z</time>
            </trkpt>
            <trkpt lon="101.368973" lat="14.222535">
                <ele>12.634399</ele>
                <time>2009-11-29T03:41:58Z</time>
            </trkpt>
            <trkpt lon="101.367922" lat="14.222967">
                <ele>11.192505</ele>
                <time>2009-11-29T03:42:28Z</time>
            </trkpt>
            <trkpt lon="101.367249" lat="14.222974">
                <ele>12.153809</ele>
                <time>2009-11-29T03:42:40Z</time>
            </trkpt>
            <trkpt lon="101.366854" lat="14.222743">
                <ele>12.153809</ele>
                <time>2009-11-29T03:42:49Z</time>
            </trkpt>
            <trkpt lon="101.366339" lat="14.222761">
                <ele>12.634399</ele>
                <time>2009-11-29T03:42:59Z</time>
            </trkpt>
            <trkpt lon="101.365461" lat="14.222292">
                <ele>10.711792</ele>
                <time>2009-11-29T03:43:17Z</time>
            </trkpt>
            <trkpt lon="101.364426" lat="14.222355">
                <ele>10.231201</ele>
                <time>2009-11-29T03:43:40Z</time>
            </trkpt>
            <trkpt lon="101.363783" lat="14.222949">
                <ele>10.231201</ele>
                <time>2009-11-29T03:43:58Z</time>
            </trkpt>
            <trkpt lon="101.362892" lat="14.223536">
                <ele>10.231201</ele>
                <time>2009-11-29T03:44:18Z</time>
            </trkpt>
            <trkpt lon="101.362001" lat="14.223869">
                <ele>11.673218</ele>
                <time>2009-11-29T03:44:37Z</time>
            </trkpt>
            <trkpt lon="101.361113" lat="14.224168">
                <ele>10.711792</ele>
                <time>2009-11-29T03:44:56Z</time>
            </trkpt>
            <trkpt lon="101.358604" lat="14.224687">
                <ele>9.750610</ele>
                <time>2009-11-29T03:45:41Z</time>
            </trkpt>
            <trkpt lon="101.356952" lat="14.224437">
                <ele>12.153809</ele>
                <time>2009-11-29T03:46:11Z</time>
            </trkpt>
            <trkpt lon="101.356552" lat="14.226266">
                <ele>12.634399</ele>
                <time>2009-11-29T03:46:53Z</time>
            </trkpt>
            <trkpt lon="101.356860" lat="14.227529">
                <ele>12.634399</ele>
                <time>2009-11-29T03:47:19Z</time>
            </trkpt>
            <trkpt lon="101.356393" lat="14.228769">
                <ele>14.076416</ele>
                <time>2009-11-29T03:47:46Z</time>
            </trkpt>
            <trkpt lon="101.354500" lat="14.228900">
                <ele>15.999023</ele>
                <time>2009-11-29T03:48:37Z</time>
            </trkpt>
            <trkpt lon="101.353362" lat="14.229096">
                <ele>16.479736</ele>
                <time>2009-11-29T03:49:06Z</time>
            </trkpt>
            <trkpt lon="101.352840" lat="14.229947">
                <ele>19.844360</ele>
                <time>2009-11-29T03:49:25Z</time>
            </trkpt>
            <trkpt lon="101.352772" lat="14.230949">
                <ele>15.999023</ele>
                <time>2009-11-29T03:49:57Z</time>
            </trkpt>
            <trkpt lon="101.353079" lat="14.231087">
                <ele>8.308594</ele>
                <time>2009-11-29T03:50:07Z</time>
            </trkpt>
            <trkpt lon="101.353088" lat="14.231243">
                <ele>9.750610</ele>
                <time>2009-11-29T03:50:14Z</time>
            </trkpt>
            <trkpt lon="101.353144" lat="14.231701">
                <ele>6.385864</ele>
                <time>2009-11-29T03:50:29Z</time>
            </trkpt>
            <trkpt lon="101.352762" lat="14.232130">
                <ele>30.418823</ele>
                <time>2009-11-29T03:52:06Z</time>
            </trkpt>
            <trkpt lon="101.352357" lat="14.232819">
                <ele>24.651001</ele>
                <time>2009-11-29T03:52:45Z</time>
            </trkpt>
            <trkpt lon="101.352609" lat="14.234236">
                <ele>23.208984</ele>
                <time>2009-11-29T03:53:43Z</time>
            </trkpt>
            <trkpt lon="101.352742" lat="14.234860">
                <ele>22.247559</ele>
                <time>2009-11-29T03:54:06Z</time>
            </trkpt>
            <trkpt lon="101.352154" lat="14.235092">
                <ele>23.208984</ele>
                <time>2009-11-29T03:54:23Z</time>
            </trkpt>
            <trkpt lon="101.351435" lat="14.235017">
                <ele>23.208984</ele>
                <time>2009-11-29T03:54:40Z</time>
            </trkpt>
            <trkpt lon="101.350665" lat="14.235024">
                <ele>21.766968</ele>
                <time>2009-11-29T03:54:57Z</time>
            </trkpt>
            <trkpt lon="101.349816" lat="14.235223">
                <ele>21.766968</ele>
                <time>2009-11-29T03:55:16Z</time>
            </trkpt>
            <trkpt lon="101.348663" lat="14.235723">
                <ele>18.883057</ele>
                <time>2009-11-29T03:55:44Z</time>
            </trkpt>
            <trkpt lon="101.346415" lat="14.234893">
                <ele>21.286377</ele>
                <time>2009-11-29T03:56:59Z</time>
            </trkpt>
            <trkpt lon="101.346002" lat="14.234286">
                <ele>23.208984</ele>
                <time>2009-11-29T03:57:29Z</time>
            </trkpt>
            <trkpt lon="101.345398" lat="14.234191">
                <ele>23.689575</ele>
                <time>2009-11-29T03:57:47Z</time>
            </trkpt>
            <trkpt lon="101.345087" lat="14.234392">
                <ele>27.534912</ele>
                <time>2009-11-29T03:58:01Z</time>
            </trkpt>
            <trkpt lon="101.345140" lat="14.234887">
                <ele>38.109375</ele>
                <time>2009-11-29T03:58:31Z</time>
            </trkpt>
            <trkpt lon="101.345076" lat="14.235262">
                <ele>36.667481</ele>
                <time>2009-11-29T03:58:50Z</time>
            </trkpt>
            <trkpt lon="101.344796" lat="14.235592">
                <ele>32.822266</ele>
                <time>2009-11-29T03:59:07Z</time>
            </trkpt>
            <trkpt lon="101.344123" lat="14.235798">
                <ele>33.302856</ele>
                <time>2009-11-29T03:59:27Z</time>
            </trkpt>
            <trkpt lon="101.343373" lat="14.235013">
                <ele>30.899536</ele>
                <time>2009-11-29T03:59:53Z</time>
            </trkpt>
            <trkpt lon="101.342506" lat="14.233639">
                <ele>28.976929</ele>
                <time>2009-11-29T04:00:17Z</time>
            </trkpt>
            <trkpt lon="101.341718" lat="14.231699">
                <ele>27.534912</ele>
                <time>2009-11-29T04:00:54Z</time>
            </trkpt>
            <trkpt lon="101.341802" lat="14.230863">
                <ele>29.457520</ele>
                <time>2009-11-29T04:01:12Z</time>
            </trkpt>
            <trkpt lon="101.341893" lat="14.230421">
                <ele>30.418823</ele>
                <time>2009-11-29T04:01:22Z</time>
            </trkpt>
            <trkpt lon="101.341402" lat="14.229104">
                <ele>29.457520</ele>
                <time>2009-11-29T04:01:46Z</time>
            </trkpt>
            <trkpt lon="101.341584" lat="14.228572">
                <ele>28.496216</ele>
                <time>2009-11-29T04:01:55Z</time>
            </trkpt>
            <trkpt lon="101.341953" lat="14.228464">
                <ele>28.015503</ele>
                <time>2009-11-29T04:02:01Z</time>
            </trkpt>
            <trkpt lon="101.342498" lat="14.228543">
                <ele>27.054321</ele>
                <time>2009-11-29T04:02:10Z</time>
            </trkpt>
            <trkpt lon="101.343370" lat="14.228227">
                <ele>25.612305</ele>
                <time>2009-11-29T04:02:25Z</time>
            </trkpt>
            <trkpt lon="101.343859" lat="14.227410">
                <ele>26.092896</ele>
                <time>2009-11-29T04:02:39Z</time>
            </trkpt>
            <trkpt lon="101.344087" lat="14.226314">
                <ele>25.131714</ele>
                <time>2009-11-29T04:02:55Z</time>
            </trkpt>
            <trkpt lon="101.344486" lat="14.225435">
                <ele>26.092896</ele>
                <time>2009-11-29T04:03:10Z</time>
            </trkpt>
            <trkpt lon="101.344227" lat="14.223974">
                <ele>26.573608</ele>
                <time>2009-11-29T04:03:40Z</time>
            </trkpt>
            <trkpt lon="101.344176" lat="14.223824">
                <ele>26.573608</ele>
                <time>2009-11-29T04:03:44Z</time>
            </trkpt>
            <trkpt lon="101.343622" lat="14.223778">
                <ele>32.822266</ele>
                <time>2009-11-29T04:04:17Z</time>
            </trkpt>
            <trkpt lon="101.342792" lat="14.223684">
                <ele>35.225464</ele>
                <time>2009-11-29T04:04:54Z</time>
            </trkpt>
            <trkpt lon="101.342324" lat="14.223525">
                <ele>38.109375</ele>
                <time>2009-11-29T04:05:10Z</time>
            </trkpt>
            <trkpt lon="101.341512" lat="14.223302">
                <ele>35.225464</ele>
                <time>2009-11-29T04:05:42Z</time>
            </trkpt>
            <trkpt lon="101.340628" lat="14.223508">
                <ele>30.899536</ele>
                <time>2009-11-29T04:06:14Z</time>
            </trkpt>
            <trkpt lon="101.339568" lat="14.223997">
                <ele>31.860718</ele>
                <time>2009-11-29T04:07:12Z</time>
            </trkpt>
            <trkpt lon="101.339112" lat="14.224196">
                <ele>29.457520</ele>
                <time>2009-11-29T04:07:33Z</time>
            </trkpt>
            <trkpt lon="101.338507" lat="14.224212">
                <ele>28.015503</ele>
                <time>2009-11-29T04:07:53Z</time>
            </trkpt>
            <trkpt lon="101.338129" lat="14.223435">
                <ele>35.706055</ele>
                <time>2009-11-29T04:08:55Z</time>
            </trkpt>
            <trkpt lon="101.337962" lat="14.222834">
                <ele>34.264160</ele>
                <time>2009-11-29T04:09:32Z</time>
            </trkpt>
            <trkpt lon="101.337635" lat="14.222551">
                <ele>30.899536</ele>
                <time>2009-11-29T04:09:50Z</time>
            </trkpt>
            <trkpt lon="101.337885" lat="14.221910">
                <ele>27.534912</ele>
                <time>2009-11-29T04:10:07Z</time>
            </trkpt>
            <trkpt lon="101.337686" lat="14.220176">
                <ele>25.612305</ele>
                <time>2009-11-29T04:10:43Z</time>
            </trkpt>
            <trkpt lon="101.338723" lat="14.217419">
                <ele>25.131714</ele>
                <time>2009-11-29T04:11:58Z</time>
            </trkpt>
            <trkpt lon="101.338862" lat="14.215875">
                <ele>27.054321</ele>
                <time>2009-11-29T04:12:32Z</time>
            </trkpt>
            <trkpt lon="101.338593" lat="14.215314">
                <ele>30.418823</ele>
                <time>2009-11-29T04:12:47Z</time>
            </trkpt>
            <trkpt lon="101.338639" lat="14.215197">
                <ele>31.380127</ele>
                <time>2009-11-29T04:12:52Z</time>
            </trkpt>
            <trkpt lon="101.339208" lat="14.215003">
                <ele>32.341553</ele>
                <time>2009-11-29T04:13:07Z</time>
            </trkpt>
            <trkpt lon="101.340632" lat="14.214854">
                <ele>25.612305</ele>
                <time>2009-11-29T04:13:31Z</time>
            </trkpt>
            <trkpt lon="101.341455" lat="14.213814">
                <ele>26.573608</ele>
                <time>2009-11-29T04:13:51Z</time>
            </trkpt>
            <trkpt lon="101.342011" lat="14.212903">
                <ele>21.766968</ele>
                <time>2009-11-29T04:14:10Z</time>
            </trkpt>
            <trkpt lon="101.342354" lat="14.212726">
                <ele>21.286377</ele>
                <time>2009-11-29T04:14:17Z</time>
            </trkpt>
            <trkpt lon="101.342559" lat="14.211771">
                <ele>20.805664</ele>
                <time>2009-11-29T04:14:32Z</time>
            </trkpt>
            <trkpt lon="101.342533" lat="14.211442">
                <ele>17.441162</ele>
                <time>2009-11-29T04:14:37Z</time>
            </trkpt>
            <trkpt lon="101.342990" lat="14.210781">
                <ele>15.037720</ele>
                <time>2009-11-29T04:14:52Z</time>
            </trkpt>
            <trkpt lon="101.343017" lat="14.209354">
                <ele>13.115112</ele>
                <time>2009-11-29T04:15:18Z</time>
            </trkpt>
            <trkpt lon="101.342605" lat="14.209157">
                <ele>12.634399</ele>
                <time>2009-11-29T04:15:21Z</time>
            </trkpt>
            <trkpt lon="101.342409" lat="14.208518">
                <ele>9.750610</ele>
                <time>2009-11-29T04:15:32Z</time>
            </trkpt>
            <trkpt lon="101.342677" lat="14.204644">
                <ele>11.673218</ele>
                <time>2009-11-29T04:17:03Z</time>
            </trkpt>
            <trkpt lon="101.342972" lat="14.204539">
                <ele>21.766968</ele>
                <time>2009-11-29T04:33:39Z</time>
            </trkpt>
            <trkpt lon="101.345870" lat="14.205542">
                <ele>7.347168</ele>
                <time>2009-11-29T04:34:44Z</time>
            </trkpt>
            <trkpt lon="101.346102" lat="14.205513">
                <ele>6.866455</ele>
                <time>2009-11-29T04:34:54Z</time>
            </trkpt>
            <trkpt lon="101.345960" lat="14.204777">
                <ele>8.308594</ele>
                <time>2009-11-29T04:35:14Z</time>
            </trkpt>
            <trkpt lon="101.345928" lat="14.204070">
                <ele>5.424561</ele>
                <time>2009-11-29T04:35:34Z</time>
            </trkpt>
            <trkpt lon="101.346450" lat="14.203864">
                <ele>13.595825</ele>
                <time>2009-11-29T04:36:30Z</time>
            </trkpt>
            <trkpt lon="101.345957" lat="14.202018">
                <ele>6.866455</ele>
                <time>2009-11-29T04:37:12Z</time>
            </trkpt>
            <trkpt lon="101.345539" lat="14.201429">
                <ele>6.866455</ele>
                <time>2009-11-29T04:37:26Z</time>
            </trkpt>
            <trkpt lon="101.345568" lat="14.200803">
                <ele>7.347168</ele>
                <time>2009-11-29T04:37:39Z</time>
            </trkpt>
            <trkpt lon="101.345295" lat="14.200335">
                <ele>6.385864</ele>
                <time>2009-11-29T04:37:49Z</time>
            </trkpt>
            <trkpt lon="101.345140" lat="14.200266">
                <ele>6.385864</ele>
                <time>2009-11-29T04:37:53Z</time>
            </trkpt>
            <trkpt lon="101.344124" lat="14.200249">
                <ele>9.269898</ele>
                <time>2009-11-29T04:38:15Z</time>
            </trkpt>
            <trkpt lon="101.343413" lat="14.200446">
                <ele>8.308594</ele>
                <time>2009-11-29T04:38:30Z</time>
            </trkpt>
            <trkpt lon="101.343347" lat="14.200352">
                <ele>8.308594</ele>
                <time>2009-11-29T04:38:34Z</time>
            </trkpt>
            <trkpt lon="101.343116" lat="14.197633">
                <ele>7.347168</ele>
                <time>2009-11-29T04:39:30Z</time>
            </trkpt>
            <trkpt lon="101.343151" lat="14.196162">
                <ele>7.827881</ele>
                <time>2009-11-29T04:40:03Z</time>
            </trkpt>
            <trkpt lon="101.342967" lat="14.194857">
                <ele>8.789185</ele>
                <time>2009-11-29T04:40:31Z</time>
            </trkpt>
            <trkpt lon="101.343149" lat="14.194591">
                <ele>8.308594</ele>
                <time>2009-11-29T04:40:37Z</time>
            </trkpt>
            <trkpt lon="101.344116" lat="14.193885">
                <ele>11.192505</ele>
                <time>2009-11-29T04:40:54Z</time>
            </trkpt>
            <trkpt lon="101.344938" lat="14.192969">
                <ele>10.711792</ele>
                <time>2009-11-29T04:41:17Z</time>
            </trkpt>
            <trkpt lon="101.344949" lat="14.193147">
                <ele>10.231201</ele>
                <time>2009-11-29T04:41:29Z</time>
            </trkpt>
            <trkpt lon="101.345523" lat="14.193677">
                <ele>10.711792</ele>
                <time>2009-11-29T04:41:43Z</time>
            </trkpt>
            <trkpt lon="101.345961" lat="14.193958">
                <ele>9.750610</ele>
                <time>2009-11-29T04:41:53Z</time>
            </trkpt>
            <trkpt lon="101.346559" lat="14.194859">
                <ele>9.269898</ele>
                <time>2009-11-29T04:42:14Z</time>
            </trkpt>
            <trkpt lon="101.347482" lat="14.195354">
                <ele>10.231201</ele>
                <time>2009-11-29T04:42:37Z</time>
            </trkpt>
            <trkpt lon="101.348043" lat="14.196077">
                <ele>9.750610</ele>
                <time>2009-11-29T04:42:57Z</time>
            </trkpt>
            <trkpt lon="101.348573" lat="14.196087">
                <ele>7.347168</ele>
                <time>2009-11-29T04:43:11Z</time>
            </trkpt>
            <trkpt lon="101.349087" lat="14.197192">
                <ele>9.269898</ele>
                <time>2009-11-29T04:43:39Z</time>
            </trkpt>
            <trkpt lon="101.350564" lat="14.197108">
                <ele>11.192505</ele>
                <time>2009-11-29T04:44:11Z</time>
            </trkpt>
            <trkpt lon="101.351951" lat="14.198206">
                <ele>8.308594</ele>
                <time>2009-11-29T04:44:49Z</time>
            </trkpt>
            <trkpt lon="101.352319" lat="14.198638">
                <ele>8.308594</ele>
                <time>2009-11-29T04:45:00Z</time>
            </trkpt>
            <trkpt lon="101.352692" lat="14.198745">
                <ele>7.827881</ele>
                <time>2009-11-29T04:45:08Z</time>
            </trkpt>
            <trkpt lon="101.353390" lat="14.198427">
                <ele>9.269898</ele>
                <time>2009-11-29T04:45:23Z</time>
            </trkpt>
            <trkpt lon="101.353628" lat="14.198527">
                <ele>9.269898</ele>
                <time>2009-11-29T04:45:29Z</time>
            </trkpt>
            <trkpt lon="101.353807" lat="14.198777">
                <ele>9.269898</ele>
                <time>2009-11-29T04:45:36Z</time>
            </trkpt>
            <trkpt lon="101.353989" lat="14.198928">
                <ele>8.789185</ele>
                <time>2009-11-29T04:45:41Z</time>
            </trkpt>
            <trkpt lon="101.355803" lat="14.199301">
                <ele>8.308594</ele>
                <time>2009-11-29T04:46:18Z</time>
            </trkpt>
            <trkpt lon="101.356064" lat="14.198906">
                <ele>9.269898</ele>
                <time>2009-11-29T04:46:29Z</time>
            </trkpt>
            <trkpt lon="101.356258" lat="14.198793">
                <ele>9.269898</ele>
                <time>2009-11-29T04:46:34Z</time>
            </trkpt>
            <trkpt lon="101.357664" lat="14.198684">
                <ele>8.308594</ele>
                <time>2009-11-29T04:47:02Z</time>
            </trkpt>
            <trkpt lon="101.358441" lat="14.198861">
                <ele>8.308594</ele>
                <time>2009-11-29T04:47:19Z</time>
            </trkpt>
            <trkpt lon="101.360328" lat="14.198482">
                <ele>10.711792</ele>
                <time>2009-11-29T04:48:08Z</time>
            </trkpt>
            <trkpt lon="101.359736" lat="14.195723">
                <ele>7.827881</ele>
                <time>2009-11-29T04:50:00Z</time>
            </trkpt>
            <trkpt lon="101.359968" lat="14.195587">
                <ele>8.789185</ele>
                <time>2009-11-29T04:50:34Z</time>
            </trkpt>
            <trkpt lon="101.359905" lat="14.194130">
                <ele>8.789185</ele>
                <time>2009-11-29T04:51:45Z</time>
            </trkpt>
            <trkpt lon="101.360131" lat="14.193828">
                <ele>7.347168</ele>
                <time>2009-11-29T04:52:45Z</time>
            </trkpt>
            <trkpt lon="101.360603" lat="14.193685">
                <ele>8.308594</ele>
                <time>2009-11-29T04:53:09Z</time>
            </trkpt>
            <trkpt lon="101.360670" lat="14.193533">
                <ele>9.750610</ele>
                <time>2009-11-29T04:53:15Z</time>
            </trkpt>
            <trkpt lon="101.360786" lat="14.193442">
                <ele>9.750610</ele>
                <time>2009-11-29T04:53:21Z</time>
            </trkpt>
            <trkpt lon="101.360979" lat="14.193449">
                <ele>8.789185</ele>
                <time>2009-11-29T04:53:27Z</time>
            </trkpt>
            <trkpt lon="101.360932" lat="14.192869">
                <ele>8.789185</ele>
                <time>2009-11-29T04:53:46Z</time>
            </trkpt>
            <trkpt lon="101.361039" lat="14.192824">
                <ele>9.269898</ele>
                <time>2009-11-29T04:53:50Z</time>
            </trkpt>
            <trkpt lon="101.361588" lat="14.192784">
                <ele>8.308594</ele>
                <time>2009-11-29T04:54:10Z</time>
            </trkpt>
            <trkpt lon="101.361829" lat="14.193235">
                <ele>8.308594</ele>
                <time>2009-11-29T04:54:22Z</time>
            </trkpt>
            <trkpt lon="101.362012" lat="14.193239">
                <ele>8.308594</ele>
                <time>2009-11-29T04:54:27Z</time>
            </trkpt>
            <trkpt lon="101.362529" lat="14.192783">
                <ele>10.231201</ele>
                <time>2009-11-29T04:54:46Z</time>
            </trkpt>
            <trkpt lon="101.362770" lat="14.192653">
                <ele>9.750610</ele>
                <time>2009-11-29T04:54:54Z</time>
            </trkpt>
            <trkpt lon="101.362907" lat="14.192774">
                <ele>9.750610</ele>
                <time>2009-11-29T04:54:59Z</time>
            </trkpt>
            <trkpt lon="101.363022" lat="14.192973">
                <ele>8.308594</ele>
                <time>2009-11-29T04:55:03Z</time>
            </trkpt>
            <trkpt lon="101.363288" lat="14.193020">
                <ele>6.385864</ele>
                <time>2009-11-29T04:55:10Z</time>
            </trkpt>
            <trkpt lon="101.363922" lat="14.192662">
                <ele>7.347168</ele>
                <time>2009-11-29T04:55:25Z</time>
            </trkpt>
            <trkpt lon="101.364048" lat="14.192755">
                <ele>8.308594</ele>
                <time>2009-11-29T04:55:32Z</time>
            </trkpt>
            <trkpt lon="101.364002" lat="14.193508">
                <ele>8.789185</ele>
                <time>2009-11-29T04:55:53Z</time>
            </trkpt>
            <trkpt lon="101.364678" lat="14.193566">
                <ele>8.789185</ele>
                <time>2009-11-29T04:56:11Z</time>
            </trkpt>
            <trkpt lon="101.364800" lat="14.193713">
                <ele>9.750610</ele>
                <time>2009-11-29T04:56:15Z</time>
            </trkpt>
            <trkpt lon="101.364907" lat="14.193906">
                <ele>9.750610</ele>
                <time>2009-11-29T04:56:20Z</time>
            </trkpt>
            <trkpt lon="101.365213" lat="14.194067">
                <ele>9.750610</ele>
                <time>2009-11-29T04:56:28Z</time>
            </trkpt>
            <trkpt lon="101.367014" lat="14.194470">
                <ele>8.308594</ele>
                <time>2009-11-29T04:57:07Z</time>
            </trkpt>
            <trkpt lon="101.367586" lat="14.194405">
                <ele>8.789185</ele>
                <time>2009-11-29T04:57:20Z</time>
            </trkpt>
            <trkpt lon="101.367897" lat="14.194091">
                <ele>9.269898</ele>
                <time>2009-11-29T04:57:30Z</time>
            </trkpt>
            <trkpt lon="101.368639" lat="14.193895">
                <ele>9.269898</ele>
                <time>2009-11-29T04:57:46Z</time>
            </trkpt>
            <trkpt lon="101.369010" lat="14.193802">
                <ele>8.789185</ele>
                <time>2009-11-29T04:57:54Z</time>
            </trkpt>
            <trkpt lon="101.369296" lat="14.193856">
                <ele>9.269898</ele>
                <time>2009-11-29T04:58:01Z</time>
            </trkpt>
            <trkpt lon="101.369793" lat="14.194234">
                <ele>10.711792</ele>
                <time>2009-11-29T04:58:15Z</time>
            </trkpt>
            <trkpt lon="101.370146" lat="14.194284">
                <ele>10.711792</ele>
                <time>2009-11-29T04:58:23Z</time>
            </trkpt>
            <trkpt lon="101.370831" lat="14.194665">
                <ele>13.115112</ele>
                <time>2009-11-29T04:58:40Z</time>
            </trkpt>
            <trkpt lon="101.370911" lat="14.194813">
                <ele>13.595825</ele>
                <time>2009-11-29T04:58:44Z</time>
            </trkpt>
            <trkpt lon="101.371083" lat="14.194929">
                <ele>13.115112</ele>
                <time>2009-11-29T04:58:52Z</time>
            </trkpt>
            <trkpt lon="101.371401" lat="14.194709">
                <ele>12.634399</ele>
                <time>2009-11-29T04:59:02Z</time>
            </trkpt>
            <trkpt lon="101.371673" lat="14.194743">
                <ele>12.153809</ele>
                <time>2009-11-29T04:59:09Z</time>
            </trkpt>
            <trkpt lon="101.371826" lat="14.194852">
                <ele>11.192505</ele>
                <time>2009-11-29T04:59:13Z</time>
            </trkpt>
            <trkpt lon="101.371909" lat="14.196179">
                <ele>13.115112</ele>
                <time>2009-11-29T04:59:41Z</time>
            </trkpt>
            <trkpt lon="101.371600" lat="14.196886">
                <ele>12.153809</ele>
                <time>2009-11-29T04:59:57Z</time>
            </trkpt>
            <trkpt lon="101.371795" lat="14.197652">
                <ele>11.673218</ele>
                <time>2009-11-29T05:00:15Z</time>
            </trkpt>
            <trkpt lon="101.372235" lat="14.198050">
                <ele>10.711792</ele>
                <time>2009-11-29T05:00:29Z</time>
            </trkpt>
            <trkpt lon="101.372681" lat="14.199140">
                <ele>10.231201</ele>
                <time>2009-11-29T05:00:54Z</time>
            </trkpt>
            <trkpt lon="101.382970" lat="14.205803">
                <ele>14.076416</ele>
                <time>2009-11-29T05:05:10Z</time>
            </trkpt>
            <trkpt lon="101.385755" lat="14.207396">
                <ele>18.883057</ele>
                <time>2009-11-29T05:06:18Z</time>
            </trkpt>
            <trkpt lon="101.386937" lat="14.207801">
                <ele>25.612305</ele>
                <time>2009-11-29T05:06:54Z</time>
            </trkpt>
            <trkpt lon="101.387328" lat="14.207988">
                <ele>26.092896</ele>
                <time>2009-11-29T05:07:06Z</time>
            </trkpt>
            <trkpt lon="101.388025" lat="14.208882">
                <ele>25.131714</ele>
                <time>2009-11-29T05:07:33Z</time>
            </trkpt>
            <trkpt lon="101.388725" lat="14.210292">
                <ele>26.092896</ele>
                <time>2009-11-29T05:08:10Z</time>
            </trkpt>
            <trkpt lon="101.388734" lat="14.210555">
                <ele>27.054321</ele>
                <time>2009-11-29T05:08:13Z</time>
            </trkpt>
            <trkpt lon="101.389782" lat="14.211517">
                <ele>26.573608</ele>
                <time>2009-11-29T05:08:44Z</time>
            </trkpt>
            <trkpt lon="101.391463" lat="14.213446">
                <ele>25.612305</ele>
                <time>2009-11-29T05:09:40Z</time>
            </trkpt>
            <trkpt lon="101.391476" lat="14.213954">
                <ele>24.170288</ele>
                <time>2009-11-29T05:09:48Z</time>
            </trkpt>
            <trkpt lon="101.390781" lat="14.215300">
                <ele>16.960449</ele>
                <time>2009-11-29T05:10:05Z</time>
            </trkpt>
            <trkpt lon="101.390758" lat="14.215594">
                <ele>16.960449</ele>
                <time>2009-11-29T05:10:09Z</time>
            </trkpt>
            <trkpt lon="101.391390" lat="14.217017">
                <ele>19.363770</ele>
                <time>2009-11-29T05:10:48Z</time>
            </trkpt>
            <trkpt lon="101.391566" lat="14.217816">
                <ele>19.844360</ele>
                <time>2009-11-29T05:11:16Z</time>
            </trkpt>
            <trkpt lon="101.392986" lat="14.217956">
                <ele>17.921753</ele>
                <time>2009-11-29T05:12:12Z</time>
            </trkpt>
            <trkpt lon="101.393494" lat="14.218201">
                <ele>17.441162</ele>
                <time>2009-11-29T05:12:30Z</time>
            </trkpt>
            <trkpt lon="101.393956" lat="14.218948">
                <ele>17.441162</ele>
                <time>2009-11-29T05:13:03Z</time>
            </trkpt>
            <trkpt lon="101.393925" lat="14.219308">
                <ele>18.883057</ele>
                <time>2009-11-29T05:14:00Z</time>
            </trkpt>
            <trkpt lon="101.393915" lat="14.219800">
                <ele>17.921753</ele>
                <time>2009-11-29T05:14:17Z</time>
            </trkpt>
            <trkpt lon="101.394840" lat="14.221940">
                <ele>17.921753</ele>
                <time>2009-11-29T05:15:39Z</time>
            </trkpt>
            <trkpt lon="101.395173" lat="14.222052">
                <ele>17.921753</ele>
                <time>2009-11-29T05:15:50Z</time>
            </trkpt>
            <trkpt lon="101.396097" lat="14.221754">
                <ele>25.131714</ele>
                <time>2009-11-29T05:16:20Z</time>
            </trkpt>
            <trkpt lon="101.396269" lat="14.221215">
                <ele>27.054321</ele>
                <time>2009-11-29T05:16:38Z</time>
            </trkpt>
            <trkpt lon="101.396291" lat="14.220653">
                <ele>25.612305</ele>
                <time>2009-11-29T05:16:51Z</time>
            </trkpt>
            <trkpt lon="101.396650" lat="14.219904">
                <ele>27.534912</ele>
                <time>2009-11-29T05:17:09Z</time>
            </trkpt>
            <trkpt lon="101.396928" lat="14.219608">
                <ele>27.534912</ele>
                <time>2009-11-29T05:17:18Z</time>
            </trkpt>
            <trkpt lon="101.397357" lat="14.219231">
                <ele>26.092896</ele>
                <time>2009-11-29T05:17:28Z</time>
            </trkpt>
            <trkpt lon="101.397584" lat="14.219244">
                <ele>25.612305</ele>
                <time>2009-11-29T05:17:32Z</time>
            </trkpt>
            <trkpt lon="101.398299" lat="14.220039">
                <ele>26.092896</ele>
                <time>2009-11-29T05:18:05Z</time>
            </trkpt>
            <trkpt lon="101.398412" lat="14.220138">
                <ele>25.612305</ele>
                <time>2009-11-29T05:18:09Z</time>
            </trkpt>
            <trkpt lon="101.399629" lat="14.220169">
                <ele>21.286377</ele>
                <time>2009-11-29T05:18:29Z</time>
            </trkpt>
            <trkpt lon="101.400215" lat="14.220403">
                <ele>36.667481</ele>
                <time>2009-11-29T05:18:33Z</time>
            </trkpt>
            <trkpt lon="101.400744" lat="14.220619">
                <ele>39.551269</ele>
                <time>2009-11-29T05:18:43Z</time>
            </trkpt>
            <trkpt lon="101.402049" lat="14.221001">
                <ele>32.341553</ele>
                <time>2009-11-29T05:19:10Z</time>
            </trkpt>
            <trkpt lon="101.402587" lat="14.220939">
                <ele>31.860718</ele>
                <time>2009-11-29T05:19:21Z</time>
            </trkpt>
            <trkpt lon="101.404757" lat="14.222050">
                <ele>29.457520</ele>
                <time>2009-11-29T05:20:23Z</time>
            </trkpt>
            <trkpt lon="101.405282" lat="14.222116">
                <ele>33.783447</ele>
                <time>2009-11-29T05:20:39Z</time>
            </trkpt>
            <trkpt lon="101.405634" lat="14.222044">
                <ele>35.706055</ele>
                <time>2009-11-29T05:20:50Z</time>
            </trkpt>
            <trkpt lon="101.405698" lat="14.221886">
                <ele>35.706055</ele>
                <time>2009-11-29T05:20:55Z</time>
            </trkpt>
            <trkpt lon="101.405632" lat="14.218545">
                <ele>33.783447</ele>
                <time>2009-11-29T05:21:46Z</time>
            </trkpt>
            <trkpt lon="101.405827" lat="14.218406">
                <ele>32.822266</ele>
                <time>2009-11-29T05:21:53Z</time>
            </trkpt>
            <trkpt lon="101.405909" lat="14.217870">
                <ele>31.860718</ele>
                <time>2009-11-29T05:22:06Z</time>
            </trkpt>
            <trkpt lon="101.406210" lat="14.217542">
                <ele>31.380127</ele>
                <time>2009-11-29T05:22:15Z</time>
            </trkpt>
            <trkpt lon="101.407133" lat="14.217271">
                <ele>31.380127</ele>
                <time>2009-11-29T05:22:35Z</time>
            </trkpt>
            <trkpt lon="101.407267" lat="14.217011">
                <ele>30.899536</ele>
                <time>2009-11-29T05:22:43Z</time>
            </trkpt>
            <trkpt lon="101.406942" lat="14.216829">
                <ele>29.938110</ele>
                <time>2009-11-29T05:22:51Z</time>
            </trkpt>
            <trkpt lon="101.406341" lat="14.216800">
                <ele>29.457520</ele>
                <time>2009-11-29T05:23:08Z</time>
            </trkpt>
            <trkpt lon="101.406353" lat="14.216803">
                <ele>28.496216</ele>
                <time>2009-11-29T05:23:48Z</time>
            </trkpt>
        </trkseg>
    </trk>
</gpx>